Time;durP1;ratioP1;P1;durP2;ratioP2;P2;SDS_P1;SDS_P2;PMS_P1;PMS_P2;Temp;Humidity;BMP_temperature;BMP_pressure;BME280_temperature;BME280_humidity;BME280_pressure;Samples;Min_cycle;Max_cycle;Signal;HPM_P1;HPM_P2
2022/07/18 00:02:02;;;;;;;10.17;5.13;;;;;;;;;;5030336;28;20034;-68
2022/07/18 00:04:27;;;;;;;10.60;4.77;;;;;;;;;;5030114;28;20030;-68
2022/07/18 00:06:53;;;;;;;11.50;4.77;;;;;;;;;;5030762;28;20043;-67
2022/07/18 00:09:19;;;;;;;10.10;4.97;;;;;;;;;;5028606;28;20394;-67
2022/07/18 00:11:44;;;;;;;8.47;5.23;;;;;;;;;;5033223;28;20031;-68
2022/07/18 00:14:10;;;;;;;13.77;5.20;;;;;;;;;;5030203;28;20033;-67
2022/07/18 00:16:35;;;;;;;9.03;4.60;;;;;;;;;;5031655;28;20584;-67
2022/07/18 00:19:02;;;;;;;9.37;4.80;;;;;;;;;;5034051;28;20490;-67
2022/07/18 00:21:27;;;;;;;9.23;5.30;;;;;;;;;;5033968;28;20014;-67
2022/07/18 00:23:53;;;;;;;11.87;5.47;;;;;;;;;;5032229;28;20037;-67
2022/07/18 00:26:18;;;;;;;11.17;5.13;;;;;;;;;;5033414;28;20429;-67
2022/07/18 00:28:43;;;;;;;9.37;5.20;;;;;;;;;;5033854;28;20029;-67
2022/07/18 00:31:08;;;;;;;14.77;5.50;;;;;;;;;;5035730;28;20029;-67
2022/07/18 00:33:33;;;;;;;10.47;5.70;;;;;;;;;;5039774;28;20034;-67
2022/07/18 00:35:59;;;;;;;11.57;5.33;;;;;;;;;;5033843;28;20477;-67
2022/07/18 00:38:24;;;;;;;9.47;5.30;;;;;;;;;;5033719;28;20482;-67
2022/07/18 00:40:49;;;;;;;10.30;5.33;;;;;;;;;;5033702;28;20021;-67
2022/07/18 00:43:15;;;;;;;8.27;4.50;;;;;;;;;;5033105;28;20124;-67
2022/07/18 00:45:44;;;;;;;12.87;4.97;;;;;;;;;;5033878;28;20021;-67
2022/07/18 00:48:09;;;;;;;7.73;4.87;;;;;;;;;;5033156;28;20525;-67
2022/07/18 00:50:34;;;;;;;9.13;4.83;;;;;;;;;;5033550;28;20068;-67
2022/07/18 00:52:59;;;;;;;7.70;4.73;;;;;;;;;;5032569;28;20040;-67
2022/07/18 00:55:25;;;;;;;9.50;5.00;;;;;;;;;;5033688;28;20113;-67
2022/07/18 00:57:51;;;;;;;8.67;4.70;;;;;;;;;;5033052;28;20052;-67
2022/07/18 01:03:00;;;;;;;7.53;4.70;;;;;;;;;;5028912;28;20036;-67
2022/07/18 01:05:25;;;;;;;13.47;5.47;;;;;;;;;;5033426;28;20033;-67
2022/07/18 01:07:51;;;;;;;10.00;5.53;;;;;;;;;;5032838;28;20033;-67
2022/07/18 01:10:17;;;;;;;13.67;6.03;;;;;;;;;;5033244;28;20040;-67
2022/07/18 01:12:43;;;;;;;11.67;5.00;;;;;;;;;;5032456;28;20025;-67
2022/07/18 01:15:08;;;;;;;9.43;4.83;;;;;;;;;;5033270;28;20029;-67
2022/07/18 01:17:33;;;;;;;10.83;4.80;;;;;;;;;;5032922;28;20429;-67
2022/07/18 01:19:58;;;;;;;12.60;5.80;;;;;;;;;;5033004;28;20370;-67
2022/07/18 01:22:24;;;;;;;8.87;5.17;;;;;;;;;;5032956;28;20472;-67
2022/07/18 01:24:49;;;;;;;8.07;5.20;;;;;;;;;;5032766;28;20499;-67
2022/07/18 01:27:15;;;;;;;8.30;5.70;;;;;;;;;;5032773;28;20533;-67
2022/07/18 01:29:40;;;;;;;10.00;5.57;;;;;;;;;;5032830;28;20551;-67
2022/07/18 01:32:06;;;;;;;12.43;6.27;;;;;;;;;;5032851;28;20053;-67
2022/07/18 01:34:32;;;;;;;10.93;5.47;;;;;;;;;;5031660;28;20025;-67
2022/07/18 01:36:57;;;;;;;9.33;5.37;;;;;;;;;;5032803;28;20025;-67
2022/07/18 01:39:22;;;;;;;9.80;6.13;;;;;;;;;;5032069;28;20024;-67
2022/07/18 01:41:54;;;;;;;11.17;6.07;;;;;;;;;;5032372;28;20036;-67
2022/07/18 01:44:19;;;;;;;;;;;;;;;;;;5035458;28;20021;-67
2022/07/18 01:46:44;;;;;;;9.32;5.82;;;;;;;;;;5032284;28;19912;-67
2022/07/18 01:49:10;;;;;;;12.97;6.60;;;;;;;;;;5031929;28;20104;-67
2022/07/18 01:51:35;;;;;;;10.27;6.93;;;;;;;;;;5029918;28;20061;-67
2022/07/18 01:54:01;;;;;;;14.97;6.87;;;;;;;;;;5030478;28;20036;-66
2022/07/18 01:56:27;;;;;;;9.27;5.40;;;;;;;;;;5031991;28;20029;-66
2022/07/18 01:58:52;;;;;;;9.97;5.37;;;;;;;;;;5032129;28;20481;-67
2022/07/18 02:01:17;;;;;;;11.40;5.93;;;;;;;;;;5031000;28;20097;-67
2022/07/18 02:03:42;;;;;;;10.17;5.60;;;;;;;;;;5031447;28;20067;-67
2022/07/18 02:06:08;;;;;;;11.90;5.47;;;;;;;;;;5029282;28;20067;-67
2022/07/18 02:08:33;;;;;;;12.30;6.37;;;;;;;;;;5030354;28;20028;-67
2022/07/18 02:10:58;;;;;;;16.07;6.70;;;;;;;;;;5033205;28;20025;-67
2022/07/18 02:13:23;;;;;;;11.50;6.30;;;;;;;;;;5030946;28;20108;-67
2022/07/18 02:15:49;;;;;;;9.60;5.53;;;;;;;;;;5031371;28;20022;-68
2022/07/18 02:18:14;;;;;;;10.43;5.97;;;;;;;;;;5030836;28;20028;-67
2022/07/18 02:20:39;;;;;;;11.03;5.73;;;;;;;;;;5029909;28;20381;-67
2022/07/18 02:23:05;;;;;;;10.80;5.97;;;;;;;;;;5030356;28;20033;-67
2022/07/18 02:25:30;;;;;;;11.83;6.23;;;;;;;;;;5034776;28;20426;-67
2022/07/18 02:27:55;;;;;;;10.17;5.77;;;;;;;;;;5031274;28;20041;-67
2022/07/18 02:30:21;;;;;;;9.40;5.53;;;;;;;;;;5031235;28;20035;-67
2022/07/18 02:32:46;;;;;;;10.60;5.30;;;;;;;;;;5031413;28;20100;-67
2022/07/18 02:35:12;;;;;;;13.40;5.20;;;;;;;;;;5031731;28;20108;-67
2022/07/18 02:37:38;;;;;;;11.80;5.23;;;;;;;;;;5031177;28;20500;-67
2022/07/18 02:40:04;;;;;;;11.30;5.70;;;;;;;;;;5031105;28;20024;-67
2022/07/18 02:42:29;;;;;;;10.40;5.67;;;;;;;;;;5031000;28;20018;-67
2022/07/18 02:44:54;;;;;;;9.57;5.53;;;;;;;;;;5030416;28;20097;-67
2022/07/18 02:47:19;;;;;;;11.20;5.80;;;;;;;;;;5028499;28;20049;-67
2022/07/18 02:49:45;;;;;;;10.33;5.60;;;;;;;;;;5029529;28;20022;-67
2022/07/18 02:52:10;;;;;;;10.67;5.63;;;;;;;;;;5030190;28;20038;-67
2022/07/18 02:54:36;;;;;;;10.17;5.30;;;;;;;;;;5030589;28;20034;-67
2022/07/18 02:57:02;;;;;;;10.60;5.53;;;;;;;;;;5029346;28;20029;-67
2022/07/18 02:59:27;;;;;;;9.80;5.30;;;;;;;;;;5031306;28;20082;-67
2022/07/18 03:01:52;;;;;;;8.57;5.30;;;;;;;;;;5030593;28;20021;-67
2022/07/18 03:04:18;;;;;;;8.03;4.90;;;;;;;;;;5030200;28;20059;-67
2022/07/18 03:06:44;;;;;;;9.60;5.13;;;;;;;;;;5029424;28;20025;-67
2022/07/18 03:09:09;;;;;;;10.47;5.23;;;;;;;;;;5027510;28;20037;-67
2022/07/18 03:11:35;;;;;;;12.67;5.77;;;;;;;;;;5032292;28;20393;-67
2022/07/18 03:14:00;;;;;;;10.33;5.77;;;;;;;;;;5029909;28;20041;-67
2022/07/18 03:16:25;;;;;;;10.77;5.37;;;;;;;;;;5030305;28;20039;-67
2022/07/18 03:18:51;;;;;;;11.40;6.20;;;;;;;;;;5029763;28;20036;-67
2022/07/18 03:21:16;;;;;;;10.90;5.67;;;;;;;;;;5029819;28;20335;-68
2022/07/18 03:23:41;;;;;;;10.13;5.40;;;;;;;;;;5030705;28;20483;-67
2022/07/18 03:26:06;;;;;;;11.10;5.50;;;;;;;;;;5030734;28;20033;-67
2022/07/18 03:28:32;;;;;;;84.77;9.40;;;;;;;;;;5030361;28;20116;-67
2022/07/18 03:30:58;;;;;;;20.20;5.80;;;;;;;;;;5028692;28;20489;-67
2022/07/18 03:33:24;;;;;;;19.93;6.30;;;;;;;;;;5030029;28;20478;-67
2022/07/18 03:35:49;;;;;;;14.30;4.90;;;;;;;;;;5029266;28;20034;-67
2022/07/18 03:38:14;;;;;;;11.27;5.13;;;;;;;;;;5029646;28;20025;-67
2022/07/18 03:40:40;;;;;;;11.97;4.97;;;;;;;;;;5030877;28;20029;-67
2022/07/18 03:43:05;;;;;;;10.53;4.77;;;;;;;;;;5028491;28;20214;-67
2022/07/18 03:45:30;;;;;;;11.30;5.03;;;;;;;;;;5030847;28;20045;-68
2022/07/18 03:47:55;;;;;;;17.60;5.27;;;;;;;;;;5029143;28;20030;-67
2022/07/18 03:50:21;;;;;;;11.43;4.83;;;;;;;;;;5029756;28;20029;-67
2022/07/18 03:52:46;;;;;;;9.40;4.97;;;;;;;;;;5032079;28;20037;-67
2022/07/18 03:55:11;;;;;;;12.83;4.83;;;;;;;;;;5034051;28;20124;-67
2022/07/18 03:57:36;;;;;;;10.37;5.10;;;;;;;;;;5033616;28;20458;-67
2022/07/18 04:00:03;;;;;;;12.00;4.00;;;;;;;;;;5032564;28;20026;-67
2022/07/18 04:02:28;;;;;;;8.57;4.13;;;;;;;;;;5033583;28;20021;-67
2022/07/18 04:04:53;;;;;;;12.07;4.33;;;;;;;;;;5037236;28;20610;-67
2022/07/18 04:07:18;;;;;;;8.80;4.30;;;;;;;;;;5037176;28;20074;-67
2022/07/18 04:09:43;;;;;;;10.47;4.20;;;;;;;;;;5032614;28;20021;-68
2022/07/18 04:12:09;;;;;;;9.03;4.13;;;;;;;;;;5033128;28;20166;-67
2022/07/18 04:14:34;;;;;;;10.83;4.20;;;;;;;;;;5032347;28;20486;-67
2022/07/18 04:16:59;;;;;;;16.27;5.50;;;;;;;;;;5034192;28;20470;-67
2022/07/18 04:19:25;;;;;;;7.90;4.20;;;;;;;;;;5036784;28;20025;-68
2022/07/18 04:21:50;;;;;;;8.17;4.07;;;;;;;;;;5033341;28;20518;-67
2022/07/18 04:24:15;;;;;;;7.73;3.87;;;;;;;;;;5033369;28;20087;-68
2022/07/18 04:26:40;;;;;;;8.80;3.83;;;;;;;;;;5032890;28;20029;-68
2022/07/18 04:29:06;;;;;;;11.63;3.80;;;;;;;;;;5033923;28;20104;-67
2022/07/18 04:31:31;;;;;;;8.20;3.97;;;;;;;;;;5033445;28;20499;-67
2022/07/18 04:33:56;;;;;;;12.53;3.70;;;;;;;;;;5040915;28;20423;-67
2022/07/18 04:36:22;;;;;;;10.20;4.03;;;;;;;;;;5034176;28;20028;-68
2022/07/18 04:38:47;;;;;;;13.27;3.50;;;;;;;;;;5033483;28;20021;-68
2022/07/18 04:41:12;;;;;;;10.27;3.88;;;;;;;;;;5033937;28;20029;-67
2022/07/18 04:43:38;;;;;;;8.55;3.30;;;;;;;;;;5032510;28;20552;-67
2022/07/18 04:46:03;;;;;;;8.20;3.25;;;;;;;;;;5037774;28;20098;-68
2022/07/18 04:48:28;;;;;;;9.40;3.10;;;;;;;;;;5029549;28;20064;-67
2022/07/18 04:50:53;;;;;;;9.40;3.35;;;;;;;;;;5026155;28;20508;-67
2022/07/18 04:53:19;;;;;;;9.02;2.80;;;;;;;;;;5034082;28;20032;-67
2022/07/18 04:55:44;;;;;;;8.75;3.30;;;;;;;;;;5034625;28;20024;-67
2022/07/18 04:58:09;;;;;;;11.85;3.50;;;;;;;;;;5031235;28;20051;-67
2022/07/18 05:00:35;;;;;;;10.23;3.10;;;;;;;;;;5043833;28;20508;-67
2022/07/18 05:03:00;;;;;;;7.63;3.08;;;;;;;;;;5032127;28;20033;-68
2022/07/18 05:05:26;;;;;;;10.57;3.17;;;;;;;;;;5033396;28;20029;-67
2022/07/18 05:07:52;;;;;;;12.20;3.22;;;;;;;;;;5033026;28;20432;-68
2022/07/18 05:10:18;;;;;;;10.95;3.83;;;;;;;;;;5031629;28;20026;-67
2022/07/18 05:12:45;;;;;;;10.38;2.97;;;;;;;;;;5033614;28;20061;-68
2022/07/18 05:15:12;;;;;;;8.25;3.20;;;;;;;;;;5033827;28;20034;-68
2022/07/18 05:17:38;;;;;;;6.78;3.15;;;;;;;;;;5032771;28;20021;-68
2022/07/18 05:20:04;;;;;;;4.90;2.75;;;;;;;;;;5032652;28;20018;-68
2022/07/18 05:22:29;;;;;;;12.35;2.97;;;;;;;;;;5031676;28;20024;-68
2022/07/18 05:24:54;;;;;;;5.38;2.45;;;;;;;;;;5032225;28;20029;-68
2022/07/18 05:27:20;;;;;;;8.82;2.45;;;;;;;;;;5042704;28;20404;-68
2022/07/18 05:29:45;;;;;;;6.38;2.45;;;;;;;;;;5032587;28;20025;-67
2022/07/18 05:32:11;;;;;;;5.55;2.30;;;;;;;;;;5032620;28;20092;-68
2022/07/18 05:34:36;;;;;;;6.55;2.50;;;;;;;;;;5032523;28;20126;-68
2022/07/18 05:37:02;;;;;;;6.85;2.60;;;;;;;;;;5030714;28;20027;-67
2022/07/18 05:39:27;;;;;;;6.15;2.58;;;;;;;;;;5030614;28;20733;-68
2022/07/18 05:41:52;;;;;;;6.18;2.70;;;;;;;;;;5031682;28;20087;-68
2022/07/18 05:44:19;;;;;;;6.82;2.95;;;;;;;;;;5030655;28;20335;-68
2022/07/18 05:46:45;;;;;;;5.72;2.60;;;;;;;;;;5031063;28;20477;-68
2022/07/18 05:49:10;;;;;;;8.57;2.55;;;;;;;;;;5030436;28;20041;-68
2022/07/18 05:51:35;;;;;;;8.15;2.50;;;;;;;;;;5038965;28;20055;-68
2022/07/18 05:54:00;;;;;;;6.32;2.33;;;;;;;;;;5032078;28;20156;-68
2022/07/18 05:56:26;;;;;;;5.57;2.40;;;;;;;;;;5031147;28;20460;-68
2022/07/18 05:58:51;;;;;;;6.57;2.42;;;;;;;;;;5029925;28;20485;-68
2022/07/18 06:01:19;;;;;;;6.43;2.70;;;;;;;;;;5042976;28;20064;-68
2022/07/18 06:03:45;;;;;;;6.82;2.50;;;;;;;;;;5030029;28;20052;-67
2022/07/18 06:06:10;;;;;;;7.38;2.80;;;;;;;;;;5030785;28;20470;-67
2022/07/18 06:08:36;;;;;;;6.65;2.25;;;;;;;;;;5029911;28;20060;-68
2022/07/18 06:11:03;;;;;;;7.28;2.33;;;;;;;;;;5032376;28;20034;-68
2022/07/18 06:13:29;;;;;;;11.60;2.10;;;;;;;;;;5029923;28;20029;-67
2022/07/18 06:15:54;;;;;;;6.72;1.95;;;;;;;;;;5029829;28;20112;-67
2022/07/18 06:18:19;;;;;;;6.05;2.10;;;;;;;;;;5030574;28;20068;-68
2022/07/18 06:20:44;;;;;;;12.25;2.20;;;;;;;;;;5025901;28;20430;-68
2022/07/18 06:23:09;;;;;;;6.57;2.40;;;;;;;;;;5028863;28;20399;-68
2022/07/18 06:25:35;;;;;;;7.53;1.90;;;;;;;;;;5032747;28;20386;-68
2022/07/18 06:28:00;;;;;;;5.85;1.73;;;;;;;;;;5029349;28;20646;-68
2022/07/18 06:30:25;;;;;;;5.93;2.00;;;;;;;;;;5030649;28;20267;-67
2022/07/18 06:32:50;;;;;;;4.22;1.83;;;;;;;;;;5029219;28;20733;-68
2022/07/18 06:35:16;;;;;;;5.60;1.85;;;;;;;;;;5028941;28;20052;-67
2022/07/18 06:37:41;;;;;;;5.25;1.77;;;;;;;;;;5024702;28;20013;-68
2022/07/18 06:40:07;;;;;;;8.60;1.90;;;;;;;;;;5011941;28;20490;-67
2022/07/18 06:42:32;;;;;;;4.72;1.77;;;;;;;;;;5012327;28;20030;-67
2022/07/18 06:44:58;;;;;;;5.00;1.60;;;;;;;;;;5031569;28;20484;-67
2022/07/18 06:47:23;;;;;;;4.07;1.70;;;;;;;;;;5031122;28;20420;-67
2022/07/18 06:49:48;;;;;;;7.50;1.77;;;;;;;;;;5030536;28;20024;-67
2022/07/18 06:52:15;;;;;;;6.85;1.80;;;;;;;;;;5031040;28;20095;-67
2022/07/18 06:54:41;;;;;;;6.25;2.00;;;;;;;;;;5030506;28;20034;-67
2022/07/18 06:57:07;;;;;;;6.75;1.80;;;;;;;;;;5031135;28;20024;-67
2022/07/18 06:59:33;;;;;;;3.55;1.50;;;;;;;;;;5030712;28;20032;-67
2022/07/18 07:01:58;;;;;;;4.40;1.60;;;;;;;;;;5030813;28;20010;-67
2022/07/18 07:04:23;;;;;;;6.18;1.95;;;;;;;;;;5030800;28;20489;-67
2022/07/18 07:06:49;;;;;;;5.40;1.85;;;;;;;;;;5030962;28;20527;-67
2022/07/18 07:09:14;;;;;;;5.38;1.88;;;;;;;;;;5030563;28;20037;-68
2022/07/18 07:11:39;;;;;;;3.92;1.50;;;;;;;;;;5031174;28;20014;-68
2022/07/18 07:14:04;;;;;;;6.35;1.63;;;;;;;;;;5030231;28;20244;-68
2022/07/18 07:16:30;;;;;;;4.20;1.70;;;;;;;;;;5030855;28;20469;-69
2022/07/18 07:18:55;;;;;;;4.97;1.70;;;;;;;;;;5030628;28;20377;-69
2022/07/18 07:21:20;;;;;;;6.53;1.90;;;;;;;;;;5030760;28;20021;-68
2022/07/18 07:23:45;;;;;;;8.68;1.95;;;;;;;;;;5030377;28;20037;-68
2022/07/18 07:26:10;;;;;;;4.68;1.83;;;;;;;;;;5033703;28;20032;-68
2022/07/18 07:28:36;;;;;;;7.20;1.70;;;;;;;;;;5034869;28;20060;-68
2022/07/18 07:31:01;;;;;;;5.18;1.50;;;;;;;;;;5035108;28;20017;-67
2022/07/18 07:33:26;;;;;;;5.32;1.58;;;;;;;;;;5034338;28;20033;-68
2022/07/18 07:35:51;;;;;;;5.43;1.63;;;;;;;;;;5035212;28;20096;-68
2022/07/18 07:38:22;;;;;;;4.40;1.27;;;;;;;;;;5034246;28;20490;-68
2022/07/18 07:40:47;;;;;;;5.82;1.45;;;;;;;;;;5034241;28;20025;-68
2022/07/18 07:43:14;;;;;;;4.20;1.30;;;;;;;;;;5034314;28;20029;-68
2022/07/18 07:45:39;;;;;;;6.95;1.63;;;;;;;;;;5034888;28;20022;-68
2022/07/18 07:48:05;;;;;;;3.70;1.48;;;;;;;;;;5034236;28;20367;-68
2022/07/18 07:50:30;;;;;;;5.18;1.60;;;;;;;;;;5034659;28;20032;-68
2022/07/18 07:52:56;;;;;;;5.32;1.40;;;;;;;;;;5033813;28;20509;-68
2022/07/18 07:55:22;;;;;;;4.03;1.15;;;;;;;;;;5034648;28;20022;-68
2022/07/18 07:57:47;;;;;;;4.80;1.30;;;;;;;;;;5034234;28;20056;-69
2022/07/18 08:00:12;;;;;;;5.00;1.17;;;;;;;;;;5034506;28;20090;-69
2022/07/18 08:02:50;;;;;;;3.58;1.10;;;;;;;;;;5033599;28;20022;-69
2022/07/18 08:05:15;;;;;;;4.53;1.10;;;;;;;;;;5034290;28;20028;-69
2022/07/18 08:07:40;;;;;;;4.85;1.00;;;;;;;;;;5034145;28;20018;-69
2022/07/18 08:10:06;;;;;;;5.25;1.20;;;;;;;;;;5033971;28;20097;-69
2022/07/18 08:12:31;;;;;;;3.70;1.05;;;;;;;;;;5033836;28;20385;-68
2022/07/18 08:14:56;;;;;;;6.17;0.93;;;;;;;;;;5034548;28;20080;-68
2022/07/18 08:17:21;;;;;;;5.40;1.15;;;;;;;;;;5034227;28;20256;-68
2022/07/18 08:19:46;;;;;;;2.83;1.10;;;;;;;;;;5033915;28;20024;-68
2022/07/18 08:22:12;;;;;;;5.60;0.97;;;;;;;;;;5034216;28;20100;-68
2022/07/18 08:24:37;;;;;;;4.45;1.05;;;;;;;;;;5033466;28;20335;-68
2022/07/18 08:27:02;;;;;;;4.77;0.90;;;;;;;;;;5033346;28;20048;-68
2022/07/18 08:29:27;;;;;;;5.05;1.25;;;;;;;;;;5033625;28;20272;-68
2022/07/18 08:31:53;;;;;;;3.22;0.82;;;;;;;;;;5033714;28;20028;-68
2022/07/18 08:34:18;;;;;;;4.30;0.93;;;;;;;;;;5033167;28;20024;-68
2022/07/18 08:36:43;;;;;;;3.23;0.90;;;;;;;;;;5032887;28;20017;-68
2022/07/18 08:39:09;;;;;;;6.00;1.10;;;;;;;;;;5033237;28;20267;-68
2022/07/18 08:41:35;;;;;;;3.60;1.00;;;;;;;;;;5033611;28;20024;-68
2022/07/18 08:44:01;;;;;;;3.75;0.90;;;;;;;;;;5033216;28;20553;-68
2022/07/18 08:46:27;;;;;;;7.78;1.23;;;;;;;;;;5033891;28;20164;-68
2022/07/18 08:48:55;;;;;;;3.58;0.95;;;;;;;;;;5033300;28;20017;-68
2022/07/18 08:51:22;;;;;;;3.70;0.95;;;;;;;;;;5033693;28;20038;-69
2022/07/18 08:53:48;;;;;;;3.83;0.90;;;;;;;;;;5033253;28;20042;-68
2022/07/18 08:56:13;;;;;;;3.58;1.00;;;;;;;;;;5033388;28;20106;-68
2022/07/18 08:58:38;;;;;;;5.97;0.80;;;;;;;;;;5033265;28;20053;-68
2022/07/18 09:01:04;;;;;;;2.78;0.88;;;;;;;;;;5032955;28;20029;-67
2022/07/18 09:03:29;;;;;;;4.88;1.00;;;;;;;;;;5033044;28;20584;-68
2022/07/18 09:06:07;;;;;;;5.43;0.90;;;;;;;;;;5033796;28;20420;-68
2022/07/18 09:08:33;;;;;;;3.05;0.90;;;;;;;;;;5032985;28;20030;-68
2022/07/18 09:10:59;;;;;;;2.88;0.82;;;;;;;;;;5032910;28;20036;-68
2022/07/18 09:13:29;;;;;;;2.80;0.88;;;;;;;;;;5032798;28;20504;-68
2022/07/18 09:15:54;;;;;;;;;;;;;;;;;;5033389;28;20027;-67
2022/07/18 09:18:30;;;;;;;8.55;1.13;;;;;;;;;;5032685;28;19909;-68
2022/07/18 09:21:03;;;;;;;2.10;0.80;;;;;;;;;;5032926;28;20025;-68
2022/07/18 09:23:31;;;;;;;4.72;0.90;;;;;;;;;;5032688;28;20056;-68
2022/07/18 09:25:59;;;;;;;5.05;1.10;;;;;;;;;;5033237;28;20416;-69
2022/07/18 09:28:25;;;;;;;2.60;1.00;;;;;;;;;;5033857;28;20121;-67
2022/07/18 09:30:51;;;;;;;6.70;0.98;;;;;;;;;;5032636;28;20032;-67
2022/07/18 09:33:16;;;;;;;4.72;0.98;;;;;;;;;;5032059;28;20033;-68
2022/07/18 09:35:43;;;;;;;5.10;1.00;;;;;;;;;;5032804;28;20025;-68
2022/07/18 09:38:09;;;;;;;5.65;1.13;;;;;;;;;;5032306;28;20466;-68
2022/07/18 09:40:37;;;;;;;3.35;1.02;;;;;;;;;;5032398;28;20017;-68
2022/07/18 09:43:07;;;;;;;2.08;0.90;;;;;;;;;;5031672;28;20034;-67
2022/07/18 09:45:32;;;;;;;3.85;1.10;;;;;;;;;;5032748;28;20025;-68
2022/07/18 09:47:58;;;;;;;4.68;1.35;;;;;;;;;;5032370;28;20036;-68
2022/07/18 09:50:25;;;;;;;3.55;1.30;;;;;;;;;;5032420;28;20029;-67
2022/07/18 09:52:57;;;;;;;2.67;1.27;;;;;;;;;;5031506;28;20040;-68
2022/07/18 09:55:22;;;;;;;5.25;1.27;;;;;;;;;;5032493;28;20029;-67
2022/07/18 09:57:56;;;;;;;3.88;1.40;;;;;;;;;;5031898;28;20029;-68
2022/07/18 10:00:22;;;;;;;4.15;1.40;;;;;;;;;;5032011;28;20111;-68
2022/07/18 10:02:47;;;;;;;5.47;1.45;;;;;;;;;;5031653;28;20091;-68
2022/07/18 10:05:13;;;;;;;3.15;1.27;;;;;;;;;;5032174;28;20047;-69
2022/07/18 10:07:38;;;;;;;5.18;1.30;;;;;;;;;;5031588;28;20111;-69
2022/07/18 10:10:04;;;;;;;4.32;1.75;;;;;;;;;;5032112;28;20029;-68
2022/07/18 10:12:30;;;;;;;4.07;1.67;;;;;;;;;;5031670;28;20501;-69
2022/07/18 10:14:55;;;;;;;3.97;1.73;;;;;;;;;;5031325;28;20017;-68
2022/07/18 10:17:22;;;;;;;3.22;1.40;;;;;;;;;;5032075;28;20028;-68
2022/07/18 10:19:47;;;;;;;3.97;1.50;;;;;;;;;;5031792;28;20029;-68
2022/07/18 10:22:12;;;;;;;3.70;1.47;;;;;;;;;;5031904;28;20016;-68
2022/07/18 10:24:41;;;;;;;3.17;1.42;;;;;;;;;;5031506;28;20284;-68
2022/07/18 10:27:17;;;;;;;3.92;1.60;;;;;;;;;;5031620;28;20448;-66
2022/07/18 10:30:21;;;;;;;4.28;1.50;;;;;;;;;;5031139;28;20029;-66
2022/07/18 10:32:48;;;;;;;3.80;1.40;;;;;;;;;;5028505;28;20075;-66
2022/07/18 10:35:15;;;;;;;3.30;1.40;;;;;;;;;;5028554;28;20048;-66
2022/07/18 10:37:40;;;;;;;3.72;1.50;;;;;;;;;;5030074;28;20018;-66
2022/07/18 10:40:22;;;;;;;3.55;1.42;;;;;;;;;;5031592;28;20365;-66
2022/07/18 10:43:07;;;;;;;4.20;2.03;;;;;;;;;;5031161;28;20493;-66
2022/07/18 10:45:43;;;;;;;3.67;1.90;;;;;;;;;;5031350;28;20517;-66
2022/07/18 10:48:27;;;;;;;4.88;1.60;;;;;;;;;;5030928;28;20039;-66
2022/07/18 10:51:05;;;;;;;3.75;1.60;;;;;;;;;;5031348;28;20484;-66
2022/07/18 10:53:49;;;;;;;6.32;2.38;;;;;;;;;;5030606;28;20033;-66
2022/07/18 10:56:14;;;;;;;4.25;1.58;;;;;;;;;;5031349;28;20021;-66
2022/07/18 10:58:40;;;;;;;3.30;1.80;;;;;;;;;;5031148;28;20021;-67
2022/07/18 11:01:10;;;;;;;4.50;2.38;;;;;;;;;;5030367;28;20755;-66
2022/07/18 11:03:36;;;;;;;3.85;2.20;;;;;;;;;;5030936;28;20083;-66
2022/07/18 11:06:01;;;;;;;4.47;1.63;;;;;;;;;;5031192;28;20466;-65
2022/07/18 11:08:30;;;;;;;3.92;2.10;;;;;;;;;;5031024;28;20064;-66
2022/07/18 11:11:01;;;;;;;4.50;2.08;;;;;;;;;;5031125;28;20109;-68
2022/07/18 11:16:13;;;;;;;3.92;1.70;;;;;;;;;;5031072;28;20478;-68
2022/07/18 11:18:38;;;;;;;6.20;1.70;;;;;;;;;;5030865;28;20017;-69
2022/07/18 11:21:15;;;;;;;3.70;1.53;;;;;;;;;;5031045;28;20481;-68
2022/07/18 11:23:42;;;;;;;4.50;1.50;;;;;;;;;;5030381;28;20252;-68
2022/07/18 11:26:13;;;;;;;3.45;1.60;;;;;;;;;;5030858;28;20025;-68
2022/07/18 11:28:38;;;;;;;6.28;1.80;;;;;;;;;;5030913;28;20397;-68
2022/07/18 11:31:08;;;;;;;4.40;1.70;;;;;;;;;;5031212;28;20029;-68
2022/07/18 11:33:36;;;;;;;3.90;1.48;;;;;;;;;;5030359;28;20117;-69
2022/07/18 11:36:02;;;;;;;5.70;1.73;;;;;;;;;;5030842;28;20036;-68
2022/07/18 11:38:27;;;;;;;5.88;1.50;;;;;;;;;;5030585;28;20032;-68
2022/07/18 11:40:52;;;;;;;3.80;1.73;;;;;;;;;;5031057;28;20026;-68
2022/07/18 11:43:22;;;;;;;4.82;1.80;;;;;;;;;;5030109;28;20389;-68
2022/07/18 11:45:47;;;;;;;4.22;1.60;;;;;;;;;;5031089;28;20025;-68
2022/07/18 11:48:20;;;;;;;7.75;2.00;;;;;;;;;;5030330;28;20034;-68
2022/07/18 11:50:45;;;;;;;4.35;1.50;;;;;;;;;;5030743;28;20393;-68
2022/07/18 11:53:11;;;;;;;4.93;1.50;;;;;;;;;;5030482;28;20030;-68
2022/07/18 11:55:37;;;;;;;4.03;1.50;;;;;;;;;;5030973;28;20029;-68
2022/07/18 11:58:06;;;;;;;5.28;1.80;;;;;;;;;;5030536;28;20611;-68
2022/07/18 12:00:31;;;;;;;3.30;1.67;;;;;;;;;;5030740;28;20497;-68
2022/07/18 12:03:05;;;;;;;3.77;1.57;;;;;;;;;;5030133;28;20107;-66
2022/07/18 12:05:31;;;;;;;3.60;1.60;;;;;;;;;;5030770;28;20260;-66
2022/07/18 12:07:56;;;;;;;4.15;1.60;;;;;;;;;;5030600;28;20482;-66
2022/07/18 12:10:21;;;;;;;4.63;1.80;;;;;;;;;;5030937;28;20050;-66
2022/07/18 12:12:47;;;;;;;6.07;1.80;;;;;;;;;;5031928;28;20264;-66
2022/07/18 12:15:12;;;;;;;4.57;2.00;;;;;;;;;;5034068;28;20421;-66
2022/07/18 12:17:44;;;;;;;5.10;1.88;;;;;;;;;;5033745;28;20489;-66
2022/07/18 12:20:10;;;;;;;5.28;2.03;;;;;;;;;;5034061;28;20022;-66
2022/07/18 12:22:35;;;;;;;4.73;1.80;;;;;;;;;;5033672;28;20374;-66
2022/07/18 12:25:00;;;;;;;6.35;2.00;;;;;;;;;;5033617;28;20245;-66
2022/07/18 12:27:33;;;;;;;4.18;1.90;;;;;;;;;;5034018;28;20025;-66
2022/07/18 12:30:14;;;;;;;5.90;2.10;;;;;;;;;;5033729;28;20034;-66
2022/07/18 12:32:39;;;;;;;;;;;;;;;;;;5033666;28;20028;-66
2022/07/18 12:35:06;;;;;;;5.75;1.88;;;;;;;;;;5033591;28;19995;-66
2022/07/18 12:37:31;;;;;;;3.72;1.90;;;;;;;;;;5032766;28;20029;-67
2022/07/18 12:40:00;;;;;;;6.20;2.03;;;;;;;;;;5033757;28;20462;-69
2022/07/18 12:42:30;;;;;;;5.57;2.13;;;;;;;;;;5033340;28;20100;-69
2022/07/18 12:44:55;;;;;;;5.50;1.90;;;;;;;;;;5033389;28;20029;-69
2022/07/18 12:47:20;;;;;;;6.87;2.40;;;;;;;;;;5033605;28;20028;-69
2022/07/18 12:49:46;;;;;;;3.97;2.20;;;;;;;;;;5032953;28;20256;-68
2022/07/18 12:52:11;;;;;;;6.65;2.20;;;;;;;;;;5033284;28;20038;-67
2022/07/18 12:54:36;;;;;;;4.55;1.80;;;;;;;;;;5033103;28;20119;-67
2022/07/18 12:57:01;;;;;;;4.45;2.30;;;;;;;;;;5033530;28;20018;-66
2022/07/18 12:59:26;;;;;;;7.40;1.83;;;;;;;;;;5033286;28;20031;-67
2022/07/18 13:01:52;;;;;;;3.67;1.95;;;;;;;;;;5033139;28;20244;-67
2022/07/18 13:04:17;;;;;;;4.45;1.88;;;;;;;;;;5032754;28;20478;-67
2022/07/18 13:06:42;;;;;;;3.38;1.90;;;;;;;;;;5033121;28;20053;-67
2022/07/18 13:09:07;;;;;;;3.83;1.80;;;;;;;;;;5031469;28;20120;-67
2022/07/18 13:11:33;;;;;;;3.97;1.60;;;;;;;;;;5033299;28;20295;-67
2022/07/18 13:13:58;;;;;;;3.80;1.80;;;;;;;;;;5032587;28;20860;-66
2022/07/18 13:16:23;;;;;;;4.95;1.70;;;;;;;;;;5033250;28;20045;-66
2022/07/18 13:18:49;;;;;;;4.13;1.90;;;;;;;;;;5032636;28;20378;-67
2022/07/18 13:21:16;;;;;;;4.07;1.83;;;;;;;;;;5032786;28;20025;-67
2022/07/18 13:23:42;;;;;;;3.50;1.70;;;;;;;;;;5031546;28;20037;-67
2022/07/18 13:26:07;;;;;;;3.55;1.85;;;;;;;;;;5032782;28;20090;-67
2022/07/18 13:28:32;;;;;;;4.75;1.90;;;;;;;;;;5032234;28;20092;-67
2022/07/18 13:30:57;;;;;;;4.53;2.08;;;;;;;;;;5032876;28;20029;-67
2022/07/18 13:33:23;;;;;;;4.25;1.85;;;;;;;;;;5031469;28;20355;-67
2022/07/18 13:35:48;;;;;;;5.82;2.22;;;;;;;;;;5032534;28;20021;-67
2022/07/18 13:38:13;;;;;;;5.05;1.80;;;;;;;;;;5032401;28;20108;-67
2022/07/18 13:40:38;;;;;;;4.18;1.80;;;;;;;;;;5032335;28;20597;-66
2022/07/18 13:43:04;;;;;;;4.20;1.90;;;;;;;;;;5031762;28;20099;-67
2022/07/18 13:45:29;;;;;;;4.33;1.90;;;;;;;;;;5032374;28;20010;-67
2022/07/18 13:47:54;;;;;;;4.87;2.07;;;;;;;;;;5031904;28;20267;-66
2022/07/18 13:50:19;;;;;;;4.07;1.90;;;;;;;;;;5032098;28;20304;-67
2022/07/18 13:52:45;;;;;;;5.60;1.83;;;;;;;;;;5031659;28;20310;-67
2022/07/18 13:55:10;;;;;;;4.97;1.77;;;;;;;;;;5032007;28;20036;-67
2022/07/18 13:57:35;;;;;;;4.05;1.80;;;;;;;;;;5032281;28;20256;-67
2022/07/18 14:00:00;;;;;;;5.90;1.93;;;;;;;;;;5032133;28;20053;-67
2022/07/18 14:02:27;;;;;;;4.78;1.80;;;;;;;;;;5031812;28;20255;-67
2022/07/18 14:04:52;;;;;;;3.85;1.80;;;;;;;;;;5032078;28;20030;-67
2022/07/18 14:07:18;;;;;;;3.45;1.70;;;;;;;;;;5031896;28;20044;-67
2022/07/18 14:09:44;;;;;;;4.00;1.63;;;;;;;;;;5031953;28;20105;-67
2022/07/18 14:12:09;;;;;;;6.85;2.20;;;;;;;;;;5027909;28;20112;-67
2022/07/18 14:14:35;;;;;;;4.22;1.80;;;;;;;;;;5030995;28;20025;-67
2022/07/18 14:17:00;;;;;;;5.10;1.90;;;;;;;;;;5031812;28;20025;-67
2022/07/18 14:19:25;;;;;;;3.47;1.60;;;;;;;;;;5031397;28;20108;-67
2022/07/18 14:21:50;;;;;;;6.13;2.00;;;;;;;;;;5030821;28;20029;-67
2022/07/18 14:24:16;;;;;;;5.47;1.70;;;;;;;;;;5031354;28;20260;-67
2022/07/18 14:26:41;;;;;;;4.27;1.63;;;;;;;;;;5031534;28;20017;-67
2022/07/18 14:29:06;;;;;;;6.82;1.95;;;;;;;;;;5031459;28;20268;-67
2022/07/18 14:31:31;;;;;;;5.50;2.10;;;;;;;;;;5031619;28;20396;-67
2022/07/18 14:33:57;;;;;;;4.85;1.65;;;;;;;;;;5031116;28;20051;-67
2022/07/18 14:36:22;;;;;;;5.13;2.17;;;;;;;;;;5031104;28;20029;-67
2022/07/18 14:38:47;;;;;;;5.93;1.80;;;;;;;;;;5031143;28;20252;-67
2022/07/18 14:41:12;;;;;;;5.70;1.80;;;;;;;;;;5031608;28;20044;-67